sensor_id;sensor_type;location;lat;lon;timestamp;P1;durP1;ratioP1;P2;durP2;ratioP2
11141;SDS011;5625;50.122;19.864;2023-05-13T00:00:39;5.20;;;4.00;;
11141;SDS011;5625;50.122;19.864;2023-05-13T00:03:10;6.13;;;3.83;;
11141;SDS011;5625;50.122;19.864;2023-05-13T00:05:38;5.10;;;3.80;;
11141;SDS011;5625;50.122;19.864;2023-05-13T00:08:07;5.27;;;3.80;;
11141;SDS011;5625;50.122;19.864;2023-05-13T00:10:37;5.40;;;3.90;;
11141;SDS011;5625;50.122;19.864;2023-05-13T00:13:06;5.50;;;3.77;;
11141;SDS011;5625;50.122;19.864;2023-05-13T00:15:34;4.87;;;3.20;;
11141;SDS011;5625;50.122;19.864;2023-05-13T00:18:02;5.57;;;4.17;;
11141;SDS011;5625;50.122;19.864;2023-05-13T00:20:30;6.63;;;3.70;;
11141;SDS011;5625;50.122;19.864;2023-05-13T00:22:58;5.80;;;4.03;;
11141;SDS011;5625;50.122;19.864;2023-05-13T00:25:28;5.03;;;3.50;;
11141;SDS011;5625;50.122;19.864;2023-05-13T00:27:56;6.70;;;4.10;;
11141;SDS011;5625;50.122;19.864;2023-05-13T00:30:25;6.87;;;4.20;;
11141;SDS011;5625;50.122;19.864;2023-05-13T00:32:53;4.90;;;4.50;;
11141;SDS011;5625;50.122;19.864;2023-05-13T00:35:21;5.20;;;3.90;;
11141;SDS011;5625;50.122;19.864;2023-05-13T00:37:49;5.33;;;3.67;;
11141;SDS011;5625;50.122;19.864;2023-05-13T00:40:18;4.30;;;3.90;;
11141;SDS011;5625;50.122;19.864;2023-05-13T00:42:49;5.47;;;3.70;;
11141;SDS011;5625;50.122;19.864;2023-05-13T00:45:18;5.40;;;4.13;;
11141;SDS011;5625;50.122;19.864;2023-05-13T00:47:47;4.80;;;4.30;;
11141;SDS011;5625;50.122;19.864;2023-05-13T00:50:16;4.40;;;3.87;;
11141;SDS011;5625;50.122;19.864;2023-05-13T00:52:44;7.17;;;4.10;;
11141;SDS011;5625;50.122;19.864;2023-05-13T00:55:14;5.50;;;3.90;;
11141;SDS011;5625;50.122;19.864;2023-05-13T00:57:42;5.63;;;3.87;;
11141;SDS011;5625;50.122;19.864;2023-05-13T01:00:10;6.13;;;3.80;;
11141;SDS011;5625;50.122;19.864;2023-05-13T01:02:40;6.30;;;4.03;;
11141;SDS011;5625;50.122;19.864;2023-05-13T01:05:18;6.80;;;3.73;;
11141;SDS011;5625;50.122;19.864;2023-05-13T01:07:55;4.30;;;3.90;;
11141;SDS011;5625;50.122;19.864;2023-05-13T01:10:30;5.13;;;3.83;;
11141;SDS011;5625;50.122;19.864;2023-05-13T01:13:09;6.00;;;4.13;;
11141;SDS011;5625;50.122;19.864;2023-05-13T01:15:39;8.00;;;3.87;;
11141;SDS011;5625;50.122;19.864;2023-05-13T01:18:26;6.03;;;4.53;;
11141;SDS011;5625;50.122;19.864;2023-05-13T01:21:01;4.17;;;3.77;;
11141;SDS011;5625;50.122;19.864;2023-05-13T01:23:32;5.53;;;3.97;;
11141;SDS011;5625;50.122;19.864;2023-05-13T01:26:00;5.43;;;4.30;;
11141;SDS011;5625;50.122;19.864;2023-05-13T01:28:30;5.67;;;4.23;;
11141;SDS011;5625;50.122;19.864;2023-05-13T01:30:58;4.27;;;3.57;;
11141;SDS011;5625;50.122;19.864;2023-05-13T01:33:26;5.73;;;3.73;;
11141;SDS011;5625;50.122;19.864;2023-05-13T01:35:55;5.33;;;4.47;;
11141;SDS011;5625;50.122;19.864;2023-05-13T01:38:24;6.50;;;4.17;;
11141;SDS011;5625;50.122;19.864;2023-05-13T01:40:55;4.23;;;3.80;;
11141;SDS011;5625;50.122;19.864;2023-05-13T01:43:25;4.67;;;4.10;;
11141;SDS011;5625;50.122;19.864;2023-05-13T01:45:54;4.50;;;3.97;;
11141;SDS011;5625;50.122;19.864;2023-05-13T01:48:25;5.07;;;4.57;;
11141;SDS011;5625;50.122;19.864;2023-05-13T01:50:53;6.17;;;4.20;;
11141;SDS011;5625;50.122;19.864;2023-05-13T01:53:22;5.20;;;4.30;;
11141;SDS011;5625;50.122;19.864;2023-05-13T01:55:50;5.37;;;4.30;;
11141;SDS011;5625;50.122;19.864;2023-05-13T01:58:19;6.73;;;4.57;;
11141;SDS011;5625;50.122;19.864;2023-05-13T02:00:50;5.17;;;4.43;;
11141;SDS011;5625;50.122;19.864;2023-05-13T02:03:18;5.60;;;4.17;;
11141;SDS011;5625;50.122;19.864;2023-05-13T02:05:47;5.63;;;4.30;;
11141;SDS011;5625;50.122;19.864;2023-05-13T02:08:14;9.07;;;4.93;;
11141;SDS011;5625;50.122;19.864;2023-05-13T02:10:42;5.20;;;4.43;;
11141;SDS011;5625;50.122;19.864;2023-05-13T02:13:10;5.47;;;4.30;;
11141;SDS011;5625;50.122;19.864;2023-05-13T02:15:40;7.73;;;4.83;;
11141;SDS011;5625;50.122;19.864;2023-05-13T02:18:09;6.47;;;5.47;;
11141;SDS011;5625;50.122;19.864;2023-05-13T02:20:37;7.33;;;4.93;;
11141;SDS011;5625;50.122;19.864;2023-05-13T02:23:05;7.13;;;4.50;;
11141;SDS011;5625;50.122;19.864;2023-05-13T02:25:33;5.67;;;5.07;;
11141;SDS011;5625;50.122;19.864;2023-05-13T02:28:01;5.67;;;4.60;;
11141;SDS011;5625;50.122;19.864;2023-05-13T02:30:32;5.27;;;4.73;;
11141;SDS011;5625;50.122;19.864;2023-05-13T02:33:01;6.17;;;4.80;;
11141;SDS011;5625;50.122;19.864;2023-05-13T02:35:29;4.97;;;4.47;;
11141;SDS011;5625;50.122;19.864;2023-05-13T02:37:57;7.63;;;5.53;;
11141;SDS011;5625;50.122;19.864;2023-05-13T02:40:25;6.50;;;5.07;;
11141;SDS011;5625;50.122;19.864;2023-05-13T02:42:53;5.70;;;5.10;;
11141;SDS011;5625;50.122;19.864;2023-05-13T02:45:21;6.87;;;5.00;;
11141;SDS011;5625;50.122;19.864;2023-05-13T02:47:49;5.30;;;4.90;;
11141;SDS011;5625;50.122;19.864;2023-05-13T02:50:19;8.03;;;5.77;;
11141;SDS011;5625;50.122;19.864;2023-05-13T02:52:47;7.53;;;4.90;;
11141;SDS011;5625;50.122;19.864;2023-05-13T02:55:15;6.67;;;4.90;;
11141;SDS011;5625;50.122;19.864;2023-05-13T02:57:43;5.97;;;5.30;;
11141;SDS011;5625;50.122;19.864;2023-05-13T03:00:12;7.13;;;5.60;;
11141;SDS011;5625;50.122;19.864;2023-05-13T03:02:41;6.23;;;5.47;;
11141;SDS011;5625;50.122;19.864;2023-05-13T03:05:09;6.70;;;5.13;;
11141;SDS011;5625;50.122;19.864;2023-05-13T03:07:38;6.67;;;5.40;;
11141;SDS011;5625;50.122;19.864;2023-05-13T03:10:07;5.63;;;4.90;;
11141;SDS011;5625;50.122;19.864;2023-05-13T03:12:35;6.27;;;4.70;;
11141;SDS011;5625;50.122;19.864;2023-05-13T03:15:03;5.77;;;5.20;;
11141;SDS011;5625;50.122;19.864;2023-05-13T03:17:32;5.63;;;5.00;;
11141;SDS011;5625;50.122;19.864;2023-05-13T03:20:00;5.47;;;4.97;;
11141;SDS011;5625;50.122;19.864;2023-05-13T03:22:28;6.47;;;5.50;;
11141;SDS011;5625;50.122;19.864;2023-05-13T03:24:58;5.43;;;4.90;;
11141;SDS011;5625;50.122;19.864;2023-05-13T03:27:26;5.20;;;4.57;;
11141;SDS011;5625;50.122;19.864;2023-05-13T03:29:54;7.33;;;5.33;;
11141;SDS011;5625;50.122;19.864;2023-05-13T03:32:22;7.10;;;5.10;;
11141;SDS011;5625;50.122;19.864;2023-05-13T03:34:55;8.07;;;5.30;;
11141;SDS011;5625;50.122;19.864;2023-05-13T03:37:23;6.40;;;4.80;;
11141;SDS011;5625;50.122;19.864;2023-05-13T03:39:52;5.90;;;5.40;;
11141;SDS011;5625;50.122;19.864;2023-05-13T03:42:21;7.13;;;5.23;;
11141;SDS011;5625;50.122;19.864;2023-05-13T03:44:49;5.13;;;4.63;;
11141;SDS011;5625;50.122;19.864;2023-05-13T03:47:17;6.90;;;4.90;;
11141;SDS011;5625;50.122;19.864;2023-05-13T03:49:45;7.07;;;5.00;;
11141;SDS011;5625;50.122;19.864;2023-05-13T03:52:14;5.60;;;4.97;;
11141;SDS011;5625;50.122;19.864;2023-05-13T03:54:42;5.53;;;5.07;;
11141;SDS011;5625;50.122;19.864;2023-05-13T03:57:10;5.90;;;4.93;;
11141;SDS011;5625;50.122;19.864;2023-05-13T03:59:39;6.10;;;5.50;;
11141;SDS011;5625;50.122;19.864;2023-05-13T04:02:07;5.60;;;5.07;;
11141;SDS011;5625;50.122;19.864;2023-05-13T04:04:35;6.00;;;5.23;;
11141;SDS011;5625;50.122;19.864;2023-05-13T04:07:03;7.87;;;5.43;;
11141;SDS011;5625;50.122;19.864;2023-05-13T04:09:31;5.13;;;4.57;;
11141;SDS011;5625;50.122;19.864;2023-05-13T04:11:59;6.07;;;5.37;;
11141;SDS011;5625;50.122;19.864;2023-05-13T04:14:28;6.07;;;4.70;;
11141;SDS011;5625;50.122;19.864;2023-05-13T04:16:58;6.40;;;4.50;;
11141;SDS011;5625;50.122;19.864;2023-05-13T04:19:26;6.40;;;4.53;;
11141;SDS011;5625;50.122;19.864;2023-05-13T04:21:54;5.83;;;4.97;;
11141;SDS011;5625;50.122;19.864;2023-05-13T04:24:22;8.37;;;5.13;;
11141;SDS011;5625;50.122;19.864;2023-05-13T04:26:50;5.60;;;5.07;;
11141;SDS011;5625;50.122;19.864;2023-05-13T04:29:18;5.50;;;4.80;;
11141;SDS011;5625;50.122;19.864;2023-05-13T04:31:45;6.47;;;4.97;;
11141;SDS011;5625;50.122;19.864;2023-05-13T04:34:15;5.33;;;4.43;;
11141;SDS011;5625;50.122;19.864;2023-05-13T04:36:43;4.97;;;4.47;;
11141;SDS011;5625;50.122;19.864;2023-05-13T04:39:11;7.23;;;5.07;;
11141;SDS011;5625;50.122;19.864;2023-05-13T04:41:39;6.17;;;4.80;;
11141;SDS011;5625;50.122;19.864;2023-05-13T04:44:07;5.47;;;4.90;;
11141;SDS011;5625;50.122;19.864;2023-05-13T04:46:35;5.17;;;4.67;;
11141;SDS011;5625;50.122;19.864;2023-05-13T04:49:05;6.17;;;4.30;;
11141;SDS011;5625;50.122;19.864;2023-05-13T04:51:35;6.87;;;4.50;;
11141;SDS011;5625;50.122;19.864;2023-05-13T04:54:03;5.43;;;4.73;;
11141;SDS011;5625;50.122;19.864;2023-05-13T04:56:31;5.57;;;4.27;;
11141;SDS011;5625;50.122;19.864;2023-05-13T04:59:01;6.80;;;4.73;;
11141;SDS011;5625;50.122;19.864;2023-05-13T05:01:29;5.27;;;4.37;;
11141;SDS011;5625;50.122;19.864;2023-05-13T05:03:58;5.30;;;4.10;;
11141;SDS011;5625;50.122;19.864;2023-05-13T05:06:27;5.83;;;4.40;;
11141;SDS011;5625;50.122;19.864;2023-05-13T05:08:57;5.70;;;4.17;;
11141;SDS011;5625;50.122;19.864;2023-05-13T05:11:25;5.13;;;4.53;;
11141;SDS011;5625;50.122;19.864;2023-05-13T05:13:54;8.10;;;4.43;;
11141;SDS011;5625;50.122;19.864;2023-05-13T05:16:22;5.13;;;4.50;;
11141;SDS011;5625;50.122;19.864;2023-05-13T05:18:50;4.97;;;4.50;;
11141;SDS011;5625;50.122;19.864;2023-05-13T05:21:18;4.17;;;3.73;;
11141;SDS011;5625;50.122;19.864;2023-05-13T05:23:48;7.33;;;4.13;;
11141;SDS011;5625;50.122;19.864;2023-05-13T05:26:17;5.00;;;4.50;;
11141;SDS011;5625;50.122;19.864;2023-05-13T05:28:46;6.97;;;4.07;;
11141;SDS011;5625;50.122;19.864;2023-05-13T05:31:14;5.70;;;4.40;;
11141;SDS011;5625;50.122;19.864;2023-05-13T05:33:45;4.60;;;4.20;;
11141;SDS011;5625;50.122;19.864;2023-05-13T05:36:13;4.77;;;3.87;;
11141;SDS011;5625;50.122;19.864;2023-05-13T05:38:41;4.27;;;3.87;;
11141;SDS011;5625;50.122;19.864;2023-05-13T05:41:09;4.33;;;3.70;;
11141;SDS011;5625;50.122;19.864;2023-05-13T05:43:38;6.07;;;3.63;;
11141;SDS011;5625;50.122;19.864;2023-05-13T05:46:06;4.63;;;3.93;;
11141;SDS011;5625;50.122;19.864;2023-05-13T05:48:34;6.93;;;4.03;;
11141;SDS011;5625;50.122;19.864;2023-05-13T05:51:02;5.60;;;3.63;;
11141;SDS011;5625;50.122;19.864;2023-05-13T05:53:31;4.53;;;3.73;;
11141;SDS011;5625;50.122;19.864;2023-05-13T05:55:59;3.90;;;3.43;;
11141;SDS011;5625;50.122;19.864;2023-05-13T05:58:29;5.63;;;3.50;;
11141;SDS011;5625;50.122;19.864;2023-05-13T06:00:59;4.03;;;3.30;;
11141;SDS011;5625;50.122;19.864;2023-05-13T06:03:27;5.57;;;4.17;;
11141;SDS011;5625;50.122;19.864;2023-05-13T06:05:55;5.57;;;3.83;;
11141;SDS011;5625;50.122;19.864;2023-05-13T06:08:23;4.13;;;3.73;;
11141;SDS011;5625;50.122;19.864;2023-05-13T06:10:55;3.67;;;3.37;;
11141;SDS011;5625;50.122;19.864;2023-05-13T06:13:25;4.00;;;3.47;;
11141;SDS011;5625;50.122;19.864;2023-05-13T06:15:53;3.73;;;3.37;;
11141;SDS011;5625;50.122;19.864;2023-05-13T06:18:22;3.60;;;3.13;;
11141;SDS011;5625;50.122;19.864;2023-05-13T06:20:50;4.87;;;3.60;;
11141;SDS011;5625;50.122;19.864;2023-05-13T06:23:18;3.53;;;3.10;;
11141;SDS011;5625;50.122;19.864;2023-05-13T06:25:46;6.73;;;3.70;;
11141;SDS011;5625;50.122;19.864;2023-05-13T06:28:15;4.63;;;3.70;;
11141;SDS011;5625;50.122;19.864;2023-05-13T06:30:43;4.60;;;4.00;;
11141;SDS011;5625;50.122;19.864;2023-05-13T06:33:11;5.27;;;3.60;;
11141;SDS011;5625;50.122;19.864;2023-05-13T06:35:40;4.47;;;3.93;;
11141;SDS011;5625;50.122;19.864;2023-05-13T06:38:14;5.03;;;4.10;;
11141;SDS011;5625;50.122;19.864;2023-05-13T06:40:43;4.60;;;3.80;;
11141;SDS011;5625;50.122;19.864;2023-05-13T06:43:11;4.90;;;3.50;;
11141;SDS011;5625;50.122;19.864;2023-05-13T06:45:43;6.03;;;3.50;;
11141;SDS011;5625;50.122;19.864;2023-05-13T06:48:11;5.17;;;3.40;;
11141;SDS011;5625;50.122;19.864;2023-05-13T06:50:42;4.23;;;3.03;;
11141;SDS011;5625;50.122;19.864;2023-05-13T06:53:10;5.40;;;3.53;;
11141;SDS011;5625;50.122;19.864;2023-05-13T06:55:41;3.67;;;3.37;;
11141;SDS011;5625;50.122;19.864;2023-05-13T06:58:11;3.80;;;3.47;;
11141;SDS011;5625;50.122;19.864;2023-05-13T07:00:40;5.67;;;3.30;;
11141;SDS011;5625;50.122;19.864;2023-05-13T07:03:11;4.00;;;2.93;;
11141;SDS011;5625;50.122;19.864;2023-05-13T07:05:40;3.57;;;3.27;;
11141;SDS011;5625;50.122;19.864;2023-05-13T07:08:11;4.70;;;3.00;;
11141;SDS011;5625;50.122;19.864;2023-05-13T07:10:43;5.33;;;2.93;;
11141;SDS011;5625;50.122;19.864;2023-05-13T07:13:11;3.60;;;2.90;;
11141;SDS011;5625;50.122;19.864;2023-05-13T07:15:39;3.07;;;2.80;;
11141;SDS011;5625;50.122;19.864;2023-05-13T07:18:10;3.40;;;2.77;;
11141;SDS011;5625;50.122;19.864;2023-05-13T07:20:41;4.60;;;2.67;;
11141;SDS011;5625;50.122;19.864;2023-05-13T07:23:10;8.80;;;2.90;;
11141;SDS011;5625;50.122;19.864;2023-05-13T07:25:38;4.87;;;2.60;;
11141;SDS011;5625;50.122;19.864;2023-05-13T07:28:06;4.03;;;3.30;;
11141;SDS011;5625;50.122;19.864;2023-05-13T07:30:34;4.13;;;3.23;;
11141;SDS011;5625;50.122;19.864;2023-05-13T07:33:02;4.20;;;2.90;;
11141;SDS011;5625;50.122;19.864;2023-05-13T07:35:31;3.93;;;2.70;;
11141;SDS011;5625;50.122;19.864;2023-05-13T07:37:59;3.83;;;2.60;;
11141;SDS011;5625;50.122;19.864;2023-05-13T07:40:28;5.33;;;2.93;;
11141;SDS011;5625;50.122;19.864;2023-05-13T07:42:56;4.50;;;2.43;;
11141;SDS011;5625;50.122;19.864;2023-05-13T07:45:24;4.30;;;2.73;;
11141;SDS011;5625;50.122;19.864;2023-05-13T07:47:52;4.90;;;2.70;;
11141;SDS011;5625;50.122;19.864;2023-05-13T07:50:23;2.80;;;2.53;;
11141;SDS011;5625;50.122;19.864;2023-05-13T07:52:51;4.67;;;2.80;;
11141;SDS011;5625;50.122;19.864;2023-05-13T07:55:19;4.90;;;2.30;;
11141;SDS011;5625;50.122;19.864;2023-05-13T07:57:49;4.13;;;2.67;;
11141;SDS011;5625;50.122;19.864;2023-05-13T08:00:19;3.40;;;2.50;;
11141;SDS011;5625;50.122;19.864;2023-05-13T08:02:47;3.77;;;2.47;;
11141;SDS011;5625;50.122;19.864;2023-05-13T08:05:15;2.80;;;2.40;;
11141;SDS011;5625;50.122;19.864;2023-05-13T08:07:43;2.70;;;1.90;;
11141;SDS011;5625;50.122;19.864;2023-05-13T08:10:11;5.53;;;2.77;;
11141;SDS011;5625;50.122;19.864;2023-05-13T08:12:40;3.50;;;2.73;;
11141;SDS011;5625;50.122;19.864;2023-05-13T08:15:10;5.57;;;2.90;;
11141;SDS011;5625;50.122;19.864;2023-05-13T08:17:39;3.20;;;2.90;;
11141;SDS011;5625;50.122;19.864;2023-05-13T08:20:07;3.07;;;2.77;;
11141;SDS011;5625;50.122;19.864;2023-05-13T08:22:36;6.07;;;3.17;;
11141;SDS011;5625;50.122;19.864;2023-05-13T08:25:04;3.23;;;2.57;;
11141;SDS011;5625;50.122;19.864;2023-05-13T08:27:33;3.67;;;2.60;;
11141;SDS011;5625;50.122;19.864;2023-05-13T08:30:03;3.50;;;2.60;;
11141;SDS011;5625;50.122;19.864;2023-05-13T08:32:33;2.50;;;2.30;;
11141;SDS011;5625;50.122;19.864;2023-05-13T08:35:01;2.50;;;2.30;;
11141;SDS011;5625;50.122;19.864;2023-05-13T08:37:32;4.27;;;2.50;;
11141;SDS011;5625;50.122;19.864;2023-05-13T08:40:00;2.97;;;2.00;;
11141;SDS011;5625;50.122;19.864;2023-05-13T08:42:30;4.27;;;2.10;;
11141;SDS011;5625;50.122;19.864;2023-05-13T08:44:59;2.80;;;2.40;;
11141;SDS011;5625;50.122;19.864;2023-05-13T08:47:35;3.37;;;2.80;;
11141;SDS011;5625;50.122;19.864;2023-05-13T08:50:10;3.13;;;2.30;;
11141;SDS011;5625;50.122;19.864;2023-05-13T08:52:38;4.03;;;2.43;;
11141;SDS011;5625;50.122;19.864;2023-05-13T08:55:07;3.50;;;2.00;;
11141;SDS011;5625;50.122;19.864;2023-05-13T08:57:35;2.97;;;2.23;;
11141;SDS011;5625;50.122;19.864;2023-05-13T09:00:03;2.30;;;2.20;;
11141;SDS011;5625;50.122;19.864;2023-05-13T09:02:34;3.33;;;1.90;;
11141;SDS011;5625;50.122;19.864;2023-05-13T09:05:03;4.57;;;2.10;;
11141;SDS011;5625;50.122;19.864;2023-05-13T09:07:33;2.00;;;1.90;;
11141;SDS011;5625;50.122;19.864;2023-05-13T09:10:02;2.40;;;2.20;;
11141;SDS011;5625;50.122;19.864;2023-05-13T09:12:43;3.20;;;2.20;;
11141;SDS011;5625;50.122;19.864;2023-05-13T09:15:12;4.40;;;2.20;;
11141;SDS011;5625;50.122;19.864;2023-05-13T09:17:43;3.10;;;2.17;;
11141;SDS011;5625;50.122;19.864;2023-05-13T09:20:19;2.10;;;2.00;;
11141;SDS011;5625;50.122;19.864;2023-05-13T09:22:51;2.73;;;2.17;;
11141;SDS011;5625;50.122;19.864;2023-05-13T09:25:20;2.23;;;2.03;;
11141;SDS011;5625;50.122;19.864;2023-05-13T09:27:50;1.70;;;1.60;;
11141;SDS011;5625;50.122;19.864;2023-05-13T09:30:23;2.90;;;1.70;;
11141;SDS011;5625;50.122;19.864;2023-05-13T09:35:37;3.70;;;1.90;;
11141;SDS011;5625;50.122;19.864;2023-05-13T09:38:13;4.73;;;2.47;;
11141;SDS011;5625;50.122;19.864;2023-05-13T09:40:48;2.93;;;2.13;;
11141;SDS011;5625;50.122;19.864;2023-05-13T09:43:17;1.90;;;1.70;;
11141;SDS011;5625;50.122;19.864;2023-05-13T09:45:46;2.97;;;2.10;;
11141;SDS011;5625;50.122;19.864;2023-05-13T09:48:23;2.63;;;1.93;;
11141;SDS011;5625;50.122;19.864;2023-05-13T09:50:52;2.40;;;1.63;;
11141;SDS011;5625;50.122;19.864;2023-05-13T09:53:21;3.53;;;2.10;;
11141;SDS011;5625;50.122;19.864;2023-05-13T09:55:49;3.00;;;2.10;;
11141;SDS011;5625;50.122;19.864;2023-05-13T09:58:20;5.20;;;1.93;;
11141;SDS011;5625;50.122;19.864;2023-05-13T10:00:49;4.53;;;1.80;;
11141;SDS011;5625;50.122;19.864;2023-05-13T10:03:18;6.70;;;1.83;;
11141;SDS011;5625;50.122;19.864;2023-05-13T10:05:47;3.77;;;1.83;;
11141;SDS011;5625;50.122;19.864;2023-05-13T10:08:16;5.17;;;1.60;;
11141;SDS011;5625;50.122;19.864;2023-05-13T10:10:44;5.63;;;1.90;;
11141;SDS011;5625;50.122;19.864;2023-05-13T10:13:15;3.23;;;1.90;;
11141;SDS011;5625;50.122;19.864;2023-05-13T10:15:47;5.20;;;2.03;;
11141;SDS011;5625;50.122;19.864;2023-05-13T10:18:16;5.77;;;2.50;;
11141;SDS011;5625;50.122;19.864;2023-05-13T10:20:46;2.97;;;1.93;;
11141;SDS011;5625;50.122;19.864;2023-05-13T10:23:21;4.95;;;2.20;;
11141;SDS011;5625;50.122;19.864;2023-05-13T10:25:50;3.60;;;2.20;;
11141;SDS011;5625;50.122;19.864;2023-05-13T10:28:21;2.47;;;2.20;;
11141;SDS011;5625;50.122;19.864;2023-05-13T10:30:51;4.83;;;2.20;;
11141;SDS011;5625;50.122;19.864;2023-05-13T10:33:20;2.40;;;2.20;;
11141;SDS011;5625;50.122;19.864;2023-05-13T10:35:57;3.77;;;2.20;;
11141;SDS011;5625;50.122;19.864;2023-05-13T10:38:37;3.43;;;2.30;;
11141;SDS011;5625;50.122;19.864;2023-05-13T10:41:23;4.03;;;2.07;;
11141;SDS011;5625;50.122;19.864;2023-05-13T10:44:06;3.10;;;2.27;;
11141;SDS011;5625;50.122;19.864;2023-05-13T10:46:35;3.80;;;2.43;;
11141;SDS011;5625;50.122;19.864;2023-05-13T10:49:04;4.43;;;2.20;;
11141;SDS011;5625;50.122;19.864;2023-05-13T10:51:44;2.90;;;2.20;;
11141;SDS011;5625;50.122;19.864;2023-05-13T10:54:17;5.40;;;2.40;;
11141;SDS011;5625;50.122;19.864;2023-05-13T10:56:51;2.70;;;2.50;;
11141;SDS011;5625;50.122;19.864;2023-05-13T10:59:23;3.03;;;2.50;;
11141;SDS011;5625;50.122;19.864;2023-05-13T11:01:55;3.10;;;2.37;;
11141;SDS011;5625;50.122;19.864;2023-05-13T11:04:23;2.83;;;2.53;;
11141;SDS011;5625;50.122;19.864;2023-05-13T11:06:53;2.67;;;2.17;;
11141;SDS011;5625;50.122;19.864;2023-05-13T11:09:28;3.50;;;2.23;;
11141;SDS011;5625;50.122;19.864;2023-05-13T11:11:57;4.53;;;2.40;;
11141;SDS011;5625;50.122;19.864;2023-05-13T11:14:26;3.73;;;2.40;;
11141;SDS011;5625;50.122;19.864;2023-05-13T11:17:06;2.87;;;2.10;;
11141;SDS011;5625;50.122;19.864;2023-05-13T11:19:35;3.03;;;2.50;;
11141;SDS011;5625;50.122;19.864;2023-05-13T11:22:08;3.17;;;2.30;;
11141;SDS011;5625;50.122;19.864;2023-05-13T11:24:38;2.90;;;2.43;;
11141;SDS011;5625;50.122;19.864;2023-05-13T11:27:13;2.10;;;2.00;;
11141;SDS011;5625;50.122;19.864;2023-05-13T11:29:52;2.40;;;2.20;;
11141;SDS011;5625;50.122;19.864;2023-05-13T11:35:18;4.07;;;1.90;;
11141;SDS011;5625;50.122;19.864;2023-05-13T11:37:49;4.00;;;1.90;;
11141;SDS011;5625;50.122;19.864;2023-05-13T11:40:20;3.63;;;2.00;;
11141;SDS011;5625;50.122;19.864;2023-05-13T11:42:49;5.23;;;2.10;;
11141;SDS011;5625;50.122;19.864;2023-05-13T11:45:17;2.80;;;1.80;;
11141;SDS011;5625;50.122;19.864;2023-05-13T11:47:51;1.80;;;1.43;;
11141;SDS011;5625;50.122;19.864;2023-05-13T11:50:21;5.37;;;1.57;;
11141;SDS011;5625;50.122;19.864;2023-05-13T11:52:55;5.13;;;1.50;;
11141;SDS011;5625;50.122;19.864;2023-05-13T11:55:24;3.57;;;1.50;;
11141;SDS011;5625;50.122;19.864;2023-05-13T11:57:56;5.03;;;1.70;;
11141;SDS011;5625;50.122;19.864;2023-05-13T12:00:24;5.60;;;1.33;;
11141;SDS011;5625;50.122;19.864;2023-05-13T12:02:53;6.87;;;1.43;;
11141;SDS011;5625;50.122;19.864;2023-05-13T12:05:22;5.67;;;1.67;;
11141;SDS011;5625;50.122;19.864;2023-05-13T12:07:53;3.73;;;1.50;;
11141;SDS011;5625;50.122;19.864;2023-05-13T12:10:24;1.67;;;1.40;;
11141;SDS011;5625;50.122;19.864;2023-05-13T12:12:53;3.87;;;1.50;;
11141;SDS011;5625;50.122;19.864;2023-05-13T12:15:21;2.20;;;1.43;;
11141;SDS011;5625;50.122;19.864;2023-05-13T12:17:50;2.07;;;1.53;;
11141;SDS011;5625;50.122;19.864;2023-05-13T12:20:20;4.23;;;1.50;;
11141;SDS011;5625;50.122;19.864;2023-05-13T12:22:50;1.80;;;1.50;;
11141;SDS011;5625;50.122;19.864;2023-05-13T12:25:32;3.80;;;1.60;;
11141;SDS011;5625;50.122;19.864;2023-05-13T12:28:05;4.43;;;1.70;;
11141;SDS011;5625;50.122;19.864;2023-05-13T12:30:35;2.73;;;1.50;;
11141;SDS011;5625;50.122;19.864;2023-05-13T12:33:04;1.50;;;1.40;;
11141;SDS011;5625;50.122;19.864;2023-05-13T12:35:33;4.00;;;1.43;;
11141;SDS011;5625;50.122;19.864;2023-05-13T12:38:03;3.47;;;1.77;;
11141;SDS011;5625;50.122;19.864;2023-05-13T12:40:31;2.73;;;1.63;;
11141;SDS011;5625;50.122;19.864;2023-05-13T12:43:00;2.03;;;1.70;;
11141;SDS011;5625;50.122;19.864;2023-05-13T12:45:29;2.07;;;1.80;;
11141;SDS011;5625;50.122;19.864;2023-05-13T12:47:59;3.87;;;1.60;;
11141;SDS011;5625;50.122;19.864;2023-05-13T12:50:28;4.57;;;1.80;;
11141;SDS011;5625;50.122;19.864;2023-05-13T12:52:56;2.83;;;1.90;;
11141;SDS011;5625;50.122;19.864;2023-05-13T12:55:27;1.70;;;1.60;;
11141;SDS011;5625;50.122;19.864;2023-05-13T12:57:55;2.43;;;1.67;;
11141;SDS011;5625;50.122;19.864;2023-05-13T13:00:26;3.00;;;2.00;;
11141;SDS011;5625;50.122;19.864;2023-05-13T13:02:54;3.33;;;1.90;;
11141;SDS011;5625;50.122;19.864;2023-05-13T13:05:23;3.73;;;2.10;;
11141;SDS011;5625;50.122;19.864;2023-05-13T13:07:52;3.47;;;2.00;;
11141;SDS011;5625;50.122;19.864;2023-05-13T13:10:20;3.87;;;3.00;;
11141;SDS011;5625;50.122;19.864;2023-05-13T13:12:51;6.13;;;2.83;;
11141;SDS011;5625;50.122;19.864;2023-05-13T13:15:19;5.07;;;4.53;;
11141;SDS011;5625;50.122;19.864;2023-05-13T13:17:49;4.37;;;2.93;;
11141;SDS011;5625;50.122;19.864;2023-05-13T13:20:17;3.60;;;2.70;;
11141;SDS011;5625;50.122;19.864;2023-05-13T13:22:45;5.33;;;3.40;;
11141;SDS011;5625;50.122;19.864;2023-05-13T13:25:13;4.80;;;2.30;;
11141;SDS011;5625;50.122;19.864;2023-05-13T13:27:41;3.33;;;1.97;;
11141;SDS011;5625;50.122;19.864;2023-05-13T13:30:11;3.73;;;2.07;;
11141;SDS011;5625;50.122;19.864;2023-05-13T13:32:39;2.17;;;1.87;;
11141;SDS011;5625;50.122;19.864;2023-05-13T13:35:08;2.97;;;1.60;;
11141;SDS011;5625;50.122;19.864;2023-05-13T13:37:36;1.37;;;1.27;;
11141;SDS011;5625;50.122;19.864;2023-05-13T13:40:05;2.50;;;1.60;;
11141;SDS011;5625;50.122;19.864;2023-05-13T13:42:34;2.17;;;1.20;;
11141;SDS011;5625;50.122;19.864;2023-05-13T13:45:11;2.77;;;1.37;;
11141;SDS011;5625;50.122;19.864;2023-05-13T13:47:40;3.60;;;1.40;;
11141;SDS011;5625;50.122;19.864;2023-05-13T13:50:09;2.80;;;1.60;;
11141;SDS011;5625;50.122;19.864;2023-05-13T13:52:40;1.67;;;1.50;;
11141;SDS011;5625;50.122;19.864;2023-05-13T13:55:08;3.00;;;1.70;;
11141;SDS011;5625;50.122;19.864;2023-05-13T13:57:37;2.97;;;1.80;;
11141;SDS011;5625;50.122;19.864;2023-05-13T14:00:06;2.30;;;1.67;;
11141;SDS011;5625;50.122;19.864;2023-05-13T14:02:36;4.10;;;1.97;;
11141;SDS011;5625;50.122;19.864;2023-05-13T14:05:05;3.10;;;1.97;;
11141;SDS011;5625;50.122;19.864;2023-05-13T14:07:34;5.00;;;2.00;;
11141;SDS011;5625;50.122;19.864;2023-05-13T14:10:03;3.57;;;2.00;;
11141;SDS011;5625;50.122;19.864;2023-05-13T14:12:32;2.43;;;1.80;;
11141;SDS011;5625;50.122;19.864;2023-05-13T14:15:05;2.40;;;2.00;;
11141;SDS011;5625;50.122;19.864;2023-05-13T14:17:33;3.13;;;1.73;;
11141;SDS011;5625;50.122;19.864;2023-05-13T14:20:03;2.20;;;1.80;;
11141;SDS011;5625;50.122;19.864;2023-05-13T14:22:33;2.10;;;2.00;;
11141;SDS011;5625;50.122;19.864;2023-05-13T14:25:01;3.33;;;1.70;;
11141;SDS011;5625;50.122;19.864;2023-05-13T14:27:34;1.83;;;1.70;;
11141;SDS011;5625;50.122;19.864;2023-05-13T14:30:03;4.37;;;1.90;;
11141;SDS011;5625;50.122;19.864;2023-05-13T14:32:31;1.73;;;1.60;;
11141;SDS011;5625;50.122;19.864;2023-05-13T14:34:59;7.20;;;1.77;;
11141;SDS011;5625;50.122;19.864;2023-05-13T14:37:31;1.70;;;1.60;;
11141;SDS011;5625;50.122;19.864;2023-05-13T14:39:59;3.70;;;1.77;;
11141;SDS011;5625;50.122;19.864;2023-05-13T14:42:27;2.20;;;2.00;;
11141;SDS011;5625;50.122;19.864;2023-05-13T14:44:55;2.27;;;1.80;;
11141;SDS011;5625;50.122;19.864;2023-05-13T14:47:23;1.90;;;1.80;;
11141;SDS011;5625;50.122;19.864;2023-05-13T14:49:51;6.57;;;2.17;;
11141;SDS011;5625;50.122;19.864;2023-05-13T14:52:20;1.73;;;1.57;;
11141;SDS011;5625;50.122;19.864;2023-05-13T14:54:51;3.20;;;1.53;;
11141;SDS011;5625;50.122;19.864;2023-05-13T14:57:19;4.53;;;1.50;;
11141;SDS011;5625;50.122;19.864;2023-05-13T14:59:47;1.90;;;1.80;;
11141;SDS011;5625;50.122;19.864;2023-05-13T15:02:15;1.80;;;1.60;;
11141;SDS011;5625;50.122;19.864;2023-05-13T15:04:43;1.80;;;1.70;;
11141;SDS011;5625;50.122;19.864;2023-05-13T15:07:11;4.90;;;2.67;;